Time;durP1;ratioP1;P1;durP2;ratioP2;P2;SDS_P1;SDS_P2;PMS_P1;PMS_P2;Temp;Humidity;BMP_temperature;BMP_pressure;BME280_temperature;BME280_humidity;BME280_pressure;Samples;Min_cycle;Max_cycle;Signal;HPM_P1;HPM_P2
2021/11/11 00:00:14;;;;;;;48.42;25.60;;;;;;;;;;5029325;28;20127;-70
2021/11/11 00:02:41;;;;;;;43.15;25.33;;;;;;;;;;5020231;28;20049;-69
2021/11/11 00:05:09;;;;;;;46.45;25.77;;;;;;;;;;5032185;28;20050;-69
2021/11/11 00:07:37;;;;;;;45.65;25.58;;;;;;;;;;5032008;28;20497;-69
2021/11/11 00:10:04;;;;;;;50.35;25.27;;;;;;;;;;5024893;28;20069;-69
2021/11/11 00:12:32;;;;;;;40.42;26.00;;;;;;;;;;5012283;28;20057;-69
2021/11/11 00:15:04;;;;;;;44.45;26.60;;;;;;;;;;5023352;28;20101;-69
2021/11/11 00:17:31;;;;;;;45.30;27.90;;;;;;;;;;5013020;28;20464;-69
2021/11/11 00:19:58;;;;;;;46.10;26.92;;;;;;;;;;5019740;28;20057;-69
2021/11/11 00:22:24;;;;;;;49.47;27.23;;;;;;;;;;5031659;28;20160;-69
2021/11/11 00:24:51;;;;;;;43.53;24.88;;;;;;;;;;5031951;28;20057;-69
2021/11/11 00:27:17;;;;;;;50.17;26.98;;;;;;;;;;5031885;28;20080;-69
2021/11/11 00:29:44;;;;;;;45.03;26.20;;;;;;;;;;5027247;28;20046;-70
2021/11/11 00:32:11;;;;;;;45.88;25.65;;;;;;;;;;5022681;28;20095;-69
2021/11/11 00:34:39;;;;;;;39.17;23.80;;;;;;;;;;5031534;28;20057;-69
2021/11/11 00:37:06;;;;;;;43.95;26.52;;;;;;;;;;5031847;28;20042;-70
2021/11/11 00:39:33;;;;;;;40.58;24.85;;;;;;;;;;5030989;28;20397;-70
2021/11/11 00:42:01;;;;;;;46.30;25.42;;;;;;;;;;5031213;28;20571;-69
2021/11/11 00:44:27;;;;;;;47.00;25.92;;;;;;;;;;5017843;28;20057;-69
2021/11/11 00:46:54;;;;;;;48.75;26.13;;;;;;;;;;5029151;28;20050;-69
2021/11/11 00:49:21;;;;;;;44.85;25.60;;;;;;;;;;5031504;28;20107;-69
2021/11/11 00:51:47;;;;;;;45.63;26.60;;;;;;;;;;5030330;28;20471;-69
2021/11/11 00:54:14;;;;;;;47.28;26.65;;;;;;;;;;5031303;28;20050;-69
2021/11/11 00:56:40;;;;;;;43.22;26.08;;;;;;;;;;5022742;28;20042;-70
2021/11/11 00:59:10;;;;;;;46.20;25.80;;;;;;;;;;5011788;28;20053;-69
2021/11/11 01:01:37;;;;;;;43.20;24.85;;;;;;;;;;5015241;28;20731;-69
2021/11/11 01:04:04;;;;;;;46.55;27.50;;;;;;;;;;5016563;28;20049;-69
2021/11/11 01:06:30;;;;;;;47.63;26.10;;;;;;;;;;5011386;28;20046;-69
2021/11/11 01:08:57;;;;;;;41.75;24.95;;;;;;;;;;5011637;28;20065;-69
2021/11/11 01:11:25;;;;;;;41.25;23.20;;;;;;;;;;5028714;28;20123;-69
2021/11/11 01:14:12;;;;;;;39.95;24.48;;;;;;;;;;5030985;28;20077;-69
2021/11/11 01:16:38;;;;;;;35.92;22.50;;;;;;;;;;5011575;28;20054;-69
2021/11/11 01:19:05;;;;;;;45.42;25.38;;;;;;;;;;5030906;28;20481;-68
2021/11/11 01:21:32;;;;;;;43.97;24.25;;;;;;;;;;5031237;28;20053;-69
2021/11/11 01:23:58;;;;;;;42.90;24.88;;;;;;;;;;5031288;28;20049;-69
2021/11/11 01:26:25;;;;;;;46.67;24.10;;;;;;;;;;5031160;28;20585;-69
2021/11/11 01:28:51;;;;;;;43.20;24.98;;;;;;;;;;5031390;28;20053;-69
2021/11/11 01:31:18;;;;;;;47.80;24.17;;;;;;;;;;5028691;28;20049;-68
2021/11/11 01:33:45;;;;;;;40.50;23.88;;;;;;;;;;5031015;28;20045;-69
2021/11/11 01:36:12;;;;;;;43.15;23.50;;;;;;;;;;5029470;28;20053;-70
2021/11/11 01:38:38;;;;;;;45.42;24.20;;;;;;;;;;5021152;28;20552;-70
2021/11/11 01:41:05;;;;;;;38.22;23.40;;;;;;;;;;5022579;28;20054;-70
2021/11/11 01:43:32;;;;;;;44.65;23.90;;;;;;;;;;5032896;28;20061;-69
2021/11/11 01:45:59;;;;;;;35.40;22.58;;;;;;;;;;5021594;28;20567;-69
2021/11/11 01:48:27;;;;;;;34.67;21.67;;;;;;;;;;5028343;28;20504;-69
2021/11/11 01:50:54;;;;;;;44.03;23.27;;;;;;;;;;5027495;28;20053;-69
2021/11/11 01:53:21;;;;;;;40.03;21.95;;;;;;;;;;5034582;28;20050;-69
2021/11/11 01:55:49;;;;;;;38.78;22.10;;;;;;;;;;5034925;28;20057;-69
2021/11/11 01:58:16;;;;;;;35.72;22.30;;;;;;;;;;5031243;28;20456;-69
2021/11/11 02:00:48;;;;;;;37.75;24.10;;;;;;;;;;5014868;28;20045;-69
2021/11/11 02:03:15;;;;;;;40.97;24.38;;;;;;;;;;5028154;28;20053;-69
2021/11/11 02:05:42;;;;;;;37.08;21.85;;;;;;;;;;5034121;28;20138;-69
2021/11/11 02:08:09;;;;;;;31.05;19.83;;;;;;;;;;5034796;28;20497;-69
2021/11/11 02:10:36;;;;;;;32.03;19.67;;;;;;;;;;5024867;28;20107;-69
2021/11/11 02:13:05;;;;;;;30.83;19.00;;;;;;;;;;5014723;28;20516;-69
2021/11/11 02:15:32;;;;;;;31.52;20.63;;;;;;;;;;5015071;28;20096;-69
2021/11/11 02:17:59;;;;;;;36.90;20.20;;;;;;;;;;5015388;28;20042;-69
2021/11/11 02:20:30;;;;;;;29.42;19.92;;;;;;;;;;5015378;28;20393;-69
2021/11/11 02:22:58;;;;;;;32.38;19.50;;;;;;;;;;5015148;28;20111;-69
2021/11/11 02:25:26;;;;;;;36.70;20.02;;;;;;;;;;5015219;28;20053;-69
2021/11/11 02:27:56;;;;;;;33.40;19.73;;;;;;;;;;5015232;28;20492;-69
2021/11/11 02:30:24;;;;;;;30.90;18.38;;;;;;;;;;5021984;28;20504;-69
2021/11/11 02:32:51;;;;;;;40.60;19.33;;;;;;;;;;5030765;28;20104;-69
2021/11/11 02:35:19;;;;;;;35.03;20.67;;;;;;;;;;5014740;28;20496;-69
2021/11/11 02:37:46;;;;;;;33.08;19.25;;;;;;;;;;5014754;28;20057;-69
2021/11/11 02:40:18;;;;;;;44.75;20.15;;;;;;;;;;5014523;28;20054;-69
2021/11/11 02:42:46;;;;;;;37.40;19.40;;;;;;;;;;5014668;28;20056;-69
2021/11/11 02:45:17;;;;;;;35.35;19.50;;;;;;;;;;5017501;28;20292;-69
2021/11/11 02:47:45;;;;;;;32.20;20.02;;;;;;;;;;5033349;28;20496;-69
2021/11/11 02:50:12;;;;;;;36.72;20.92;;;;;;;;;;5025961;28;20504;-69
2021/11/11 02:52:39;;;;;;;36.15;20.85;;;;;;;;;;5014684;28;20077;-69
2021/11/11 02:55:06;;;;;;;31.67;20.80;;;;;;;;;;5014143;28;20045;-69
2021/11/11 02:57:36;;;;;;;35.25;21.25;;;;;;;;;;5030710;28;20041;-68
2021/11/11 03:00:15;;;;;;;31.67;19.77;;;;;;;;;;5015005;28;20049;-69
2021/11/11 03:02:44;;;;;;;28.70;18.90;;;;;;;;;;5017391;28;20045;-68
2021/11/11 03:05:13;;;;;;;30.35;20.15;;;;;;;;;;5022884;28;20077;-68
2021/11/11 03:07:41;;;;;;;29.17;19.60;;;;;;;;;;5013366;28;20188;-69
2021/11/11 03:10:10;;;;;;;31.85;18.38;;;;;;;;;;5014481;28;20049;-68
2021/11/11 03:12:37;;;;;;;44.72;20.05;;;;;;;;;;5014088;28;20058;-68
2021/11/11 03:15:04;;;;;;;28.60;18.90;;;;;;;;;;5014339;28;20104;-69
2021/11/11 03:17:31;;;;;;;39.80;20.55;;;;;;;;;;5014443;28;20046;-69
2021/11/11 03:19:58;;;;;;;50.88;21.63;;;;;;;;;;4997548;28;20054;-68
2021/11/11 03:22:25;;;;;;;50.58;19.77;;;;;;;;;;5013923;28;20050;-68
2021/11/11 03:24:52;;;;;;;57.85;21.15;;;;;;;;;;5016986;28;20053;-69
2021/11/11 03:27:20;;;;;;;53.40;20.13;;;;;;;;;;5014020;28;20493;-69
2021/11/11 03:29:49;;;;;;;50.33;21.92;;;;;;;;;;5014165;28;20088;-69
2021/11/11 03:32:16;;;;;;;91.95;23.02;;;;;;;;;;5022337;28;20049;-69
2021/11/11 03:34:43;;;;;;;34.35;18.60;;;;;;;;;;5028975;28;20562;-69
2021/11/11 03:37:11;;;;;;;49.25;21.73;;;;;;;;;;5033493;28;20539;-69
2021/11/11 03:39:38;;;;;;;35.92;19.77;;;;;;;;;;5024348;28;20108;-69
2021/11/11 03:42:06;;;;;;;37.15;19.00;;;;;;;;;;5013260;28;20141;-69
2021/11/11 03:44:33;;;;;;;35.60;19.85;;;;;;;;;;5019160;28;20068;-69
2021/11/11 03:47:00;;;;;;;48.58;20.30;;;;;;;;;;5027102;23;20378;-72
2021/11/11 03:49:28;;;;;;;29.42;18.85;;;;;;;;;;4973833;28;20047;-72
2021/11/11 03:51:54;;;;;;;39.72;18.17;;;;;;;;;;4974198;28;20481;-72
2021/11/11 03:54:22;;;;;;;49.67;19.10;;;;;;;;;;4974313;28;20109;-72
2021/11/11 03:56:50;;;;;;;66.65;20.48;;;;;;;;;;4974344;28;20457;-72
2021/11/11 03:59:17;;;;;;;43.20;19.25;;;;;;;;;;4974190;28;20097;-72
2021/11/11 04:01:44;;;;;;;48.58;21.55;;;;;;;;;;4961253;28;20106;-72
2021/11/11 04:04:11;;;;;;;38.70;20.42;;;;;;;;;;4972473;28;20054;-72
2021/11/11 04:06:38;;;;;;;33.45;20.00;;;;;;;;;;4973893;28;20050;-72
2021/11/11 04:09:05;;;;;;;42.47;19.67;;;;;;;;;;4974087;28;20102;-73
2021/11/11 04:11:33;;;;;;;65.50;19.67;;;;;;;;;;4970457;28;20493;-73
2021/11/11 04:14:00;;;;;;;44.05;18.08;;;;;;;;;;4974088;28;20054;-72
2021/11/11 04:16:26;;;;;;;86.25;21.00;;;;;;;;;;4973600;28;20046;-73
2021/11/11 04:18:54;;;;;;;32.03;18.77;;;;;;;;;;4973985;28;20619;-73
2021/11/11 04:21:20;;;;;;;37.53;19.48;;;;;;;;;;4962798;28;20055;-73
2021/11/11 04:23:48;;;;;;;68.57;21.08;;;;;;;;;;4963633;28;20056;-73
2021/11/11 04:26:27;;;;;;;38.40;19.40;;;;;;;;;;4966370;28;20161;-73
2021/11/11 04:31:26;;;;;;;74.50;21.08;;;;;;;;;;4973430;28;20086;-72
2021/11/11 04:33:57;;;;;;;74.57;21.42;;;;;;;;;;4954513;28;20055;-73
2021/11/11 04:36:45;;;;;;;154.63;22.15;;;;;;;;;;4954315;28;20119;-72
2021/11/11 04:42:19;;;;;;;51.60;17.15;;;;;;;;;;4952999;29;20055;-72
2021/11/11 05:03:31;;;;;;;34.78;17.38;;;;;;;;;;4973084;28;20058;-72
2021/11/11 05:05:59;;;;;;;38.70;17.52;;;;;;;;;;4965978;28;20506;-72
2021/11/11 05:08:26;;;;;;;75.50;21.95;;;;;;;;;;4972873;28;20074;-72
2021/11/11 05:10:53;;;;;;;78.13;22.73;;;;;;;;;;4972991;28;20059;-72
2021/11/11 05:13:20;;;;;;;145.93;26.80;;;;;;;;;;4972797;28;20493;-72
2021/11/11 05:15:47;;;;;;;58.05;23.60;;;;;;;;;;4973240;28;20047;-72
2021/11/11 05:18:13;;;;;;;60.28;25.45;;;;;;;;;;4972587;28;20442;-72
2021/11/11 05:20:40;;;;;;;86.43;22.50;;;;;;;;;;4972928;28;20109;-72
2021/11/11 05:23:07;;;;;;;71.10;21.80;;;;;;;;;;4964097;28;20415;-73
2021/11/11 05:25:33;;;;;;;49.22;19.63;;;;;;;;;;4953584;28;20050;-72
2021/11/11 05:28:01;;;;;;;50.20;18.20;;;;;;;;;;4953666;28;20442;-72
2021/11/11 05:30:28;;;;;;;44.83;18.00;;;;;;;;;;4953213;28;20051;-72
2021/11/11 05:32:55;;;;;;;103.13;18.60;;;;;;;;;;4953173;28;20062;-72
2021/11/11 05:35:22;;;;;;;104.95;19.52;;;;;;;;;;4953530;28;20062;-72
2021/11/11 05:37:48;;;;;;;81.43;17.90;;;;;;;;;;4953610;28;20051;-72
2021/11/11 05:40:17;;;;;;;53.10;17.63;;;;;;;;;;4952424;29;20191;-74
2021/11/11 05:42:44;;;;;;;35.40;17.05;;;;;;;;;;4950814;28;20054;-74
2021/11/11 05:45:12;;;;;;;51.97;17.63;;;;;;;;;;4972903;28;20082;-73
2021/11/11 05:47:38;;;;;;;54.28;17.45;;;;;;;;;;4972475;28;20051;-74
2021/11/11 05:50:06;;;;;;;36.95;16.13;;;;;;;;;;4972949;28;20109;-74
2021/11/11 05:52:33;;;;;;;35.50;16.95;;;;;;;;;;4971386;28;20051;-73
2021/11/11 05:55:00;;;;;;;27.95;16.30;;;;;;;;;;4972990;28;20109;-72
2021/11/11 05:57:26;;;;;;;43.05;17.02;;;;;;;;;;4972823;28;20054;-72
2021/11/11 05:59:53;;;;;;;32.33;16.85;;;;;;;;;;4972848;28;20110;-72
2021/11/11 06:02:21;;;;;;;39.60;18.83;;;;;;;;;;4953425;28;20051;-72
2021/11/11 06:04:48;;;;;;;43.33;17.38;;;;;;;;;;4953387;28;20114;-72
2021/11/11 06:07:15;;;;;;;31.27;16.00;;;;;;;;;;4952942;28;20047;-72
2021/11/11 06:09:41;;;;;;;31.58;16.73;;;;;;;;;;4955352;28;20465;-72
2021/11/11 06:12:08;;;;;;;39.88;17.88;;;;;;;;;;4971044;28;20518;-72
2021/11/11 06:14:35;;;;;;;55.13;19.42;;;;;;;;;;4972422;28;20463;-71
2021/11/11 06:17:06;;;;;;;33.58;17.00;;;;;;;;;;4972329;28;20054;-72
2021/11/11 06:19:34;;;;;;;38.65;19.15;;;;;;;;;;4972460;28;20062;-73
2021/11/11 06:22:03;;;;;;;65.07;20.33;;;;;;;;;;4972181;28;20059;-73
2021/11/11 06:24:30;;;;;;;49.05;19.83;;;;;;;;;;4956127;28;20111;-72
2021/11/11 06:26:57;;;;;;;34.25;17.70;;;;;;;;;;4952879;28;20055;-71
2021/11/11 06:29:24;;;;;;;49.55;17.80;;;;;;;;;;4954252;28;20574;-71
2021/11/11 06:31:51;;;;;;;36.72;17.15;;;;;;;;;;4956465;28;20055;-71
2021/11/11 06:34:24;;;;;;;43.30;19.05;;;;;;;;;;4956511;28;20474;-71
2021/11/11 06:36:50;;;;;;;57.28;18.35;;;;;;;;;;4959555;28;20494;-71
2021/11/11 06:39:17;;;;;;;47.08;18.83;;;;;;;;;;4975313;28;20051;-71
2021/11/11 06:41:44;;;;;;;31.33;18.17;;;;;;;;;;4956340;28;20106;-70
2021/11/11 06:44:18;;;;;;;25.00;17.45;;;;;;;;;;4956451;28;20054;-71
2021/11/11 06:46:45;;;;;;;33.95;17.98;;;;;;;;;;4956293;28;20062;-71
2021/11/11 06:49:12;;;;;;;38.72;17.58;;;;;;;;;;4956215;28;20063;-70
2021/11/11 06:51:39;;;;;;;48.65;18.17;;;;;;;;;;4964428;28;20179;-71
2021/11/11 06:54:08;;;;;;;51.35;19.00;;;;;;;;;;4974211;28;20051;-70
2021/11/11 06:56:36;;;;;;;41.38;18.13;;;;;;;;;;4975413;28;20058;-71
2021/11/11 06:59:03;;;;;;;29.98;18.23;;;;;;;;;;4975474;28;20105;-71
2021/11/11 07:01:30;;;;;;;34.97;18.05;;;;;;;;;;4975137;28;20129;-71
2021/11/11 07:03:57;;;;;;;39.53;18.60;;;;;;;;;;4975333;28;20093;-71
2021/11/11 07:06:23;;;;;;;37.83;18.77;;;;;;;;;;4968701;28;20065;-71
2021/11/11 07:08:50;;;;;;;37.72;18.23;;;;;;;;;;4975193;28;20101;-71
2021/11/11 07:11:16;;;;;;;30.27;16.90;;;;;;;;;;4974923;28;20102;-71
2021/11/11 07:13:43;;;;;;;39.17;18.52;;;;;;;;;;4975211;28;20173;-72
2021/11/11 07:16:10;;;;;;;36.38;16.77;;;;;;;;;;4975025;28;20521;-71
2021/11/11 07:18:36;;;;;;;40.78;18.10;;;;;;;;;;4975017;28;20049;-71
2021/11/11 07:21:03;;;;;;;50.35;18.45;;;;;;;;;;4974808;28;20510;-71
2021/11/11 07:23:30;;;;;;;57.50;19.30;;;;;;;;;;4974699;28;20117;-71
2021/11/11 07:25:56;;;;;;;42.00;17.40;;;;;;;;;;4974630;28;20458;-72
2021/11/11 07:28:23;;;;;;;58.35;17.55;;;;;;;;;;4974653;28;20129;-70
2021/11/11 07:30:50;;;;;;;105.93;19.33;;;;;;;;;;4974838;28;20109;-68
2021/11/11 07:33:17;;;;;;;78.05;17.77;;;;;;;;;;4968800;28;20106;-68
2021/11/11 07:35:44;;;;;;;40.28;16.88;;;;;;;;;;4955318;28;20051;-68
2021/11/11 07:38:12;;;;;;;72.30;16.95;;;;;;;;;;4955277;28;20109;-68
2021/11/11 07:40:39;;;;;;;76.70;17.48;;;;;;;;;;4955111;28;20110;-69
2021/11/11 07:43:06;;;;;;;41.78;16.67;;;;;;;;;;4955145;29;20059;-69
2021/11/11 07:45:32;;;;;;;48.00;18.75;;;;;;;;;;4956861;28;20705;-69
2021/11/11 07:48:01;;;;;;;40.38;16.60;;;;;;;;;;4971570;28;20074;-69
2021/11/11 07:50:33;;;;;;;51.10;17.67;;;;;;;;;;4972451;28;20050;-72
2021/11/11 07:53:01;;;;;;;47.63;17.33;;;;;;;;;;4972517;28;20114;-70
2021/11/11 07:55:29;;;;;;;35.47;17.80;;;;;;;;;;4972566;28;20058;-70
2021/11/11 07:57:57;;;;;;;53.88;15.98;;;;;;;;;;4972608;28;20047;-70
2021/11/11 08:00:23;;;;;;;24.58;15.73;;;;;;;;;;4965515;28;20106;-70
2021/11/11 08:02:50;;;;;;;38.30;14.63;;;;;;;;;;4953056;28;20490;-70
2021/11/11 08:05:19;;;;;;;53.40;17.60;;;;;;;;;;4953178;28;20097;-70
2021/11/11 08:07:47;;;;;;;42.45;14.85;;;;;;;;;;4952948;28;20058;-71
2021/11/11 08:10:15;;;;;;;47.38;15.57;;;;;;;;;;4953021;28;20462;-70
2021/11/11 08:12:42;;;;;;;48.50;14.80;;;;;;;;;;4955522;28;20051;-70
2021/11/11 08:15:09;;;;;;;25.90;14.52;;;;;;;;;;4972217;28;20050;-70
2021/11/11 08:17:36;;;;;;;22.27;15.20;;;;;;;;;;4972183;28;20494;-70
2021/11/11 08:20:05;;;;;;;23.65;14.27;;;;;;;;;;4972324;28;20062;-71
2021/11/11 08:22:31;;;;;;;44.00;15.23;;;;;;;;;;4970659;28;20058;-70
2021/11/11 08:24:58;;;;;;;18.38;13.20;;;;;;;;;;4972047;28;20399;-69
2021/11/11 08:27:25;;;;;;;27.50;14.40;;;;;;;;;;4962219;28;20063;-70
2021/11/11 08:29:52;;;;;;;32.05;13.55;;;;;;;;;;4952763;28;20055;-69
2021/11/11 08:32:19;;;;;;;26.35;15.15;;;;;;;;;;4952496;28;20047;-69
2021/11/11 08:34:47;;;;;;;21.02;13.65;;;;;;;;;;4952747;28;20078;-70
2021/11/11 08:37:14;;;;;;;30.17;17.08;;;;;;;;;;4952446;28;20106;-70
2021/11/11 08:39:41;;;;;;;27.92;15.93;;;;;;;;;;4952103;29;20047;-69
2021/11/11 08:42:09;;;;;;;23.23;13.73;;;;;;;;;;4952285;28;20086;-69
2021/11/11 08:44:42;;;;;;;46.90;13.68;;;;;;;;;;4952386;28;20511;-69
2021/11/11 08:47:14;;;;;;;108.35;15.95;;;;;;;;;;4951918;28;20061;-70
2021/11/11 08:49:42;;;;;;;71.35;14.13;;;;;;;;;;4950902;28;20047;-67
2021/11/11 08:52:10;;;;;;;73.93;14.63;;;;;;;;;;4950446;28;20101;-68
2021/11/11 08:54:37;;;;;;;107.05;14.95;;;;;;;;;;4954733;28;20106;-68
2021/11/11 08:57:05;;;;;;;44.85;13.77;;;;;;;;;;4971437;28;20539;-67
2021/11/11 08:59:35;;;;;;;145.43;17.42;;;;;;;;;;4971393;28;20042;-70
2021/11/11 09:02:02;;;;;;;59.70;14.93;;;;;;;;;;4971218;28;20051;-70
2021/11/11 09:04:29;;;;;;;35.53;14.70;;;;;;;;;;4970596;28;20558;-70
2021/11/11 09:06:58;;;;;;;25.30;14.38;;;;;;;;;;4972730;28;20129;-67
2021/11/11 09:09:25;;;;;;;19.98;14.23;;;;;;;;;;4973044;28;20043;-67
2021/11/11 09:11:52;;;;;;;22.80;14.43;;;;;;;;;;4968811;28;20097;-67
2021/11/11 09:14:18;;;;;;;22.25;14.85;;;;;;;;;;4970107;28;20135;-68
2021/11/11 09:16:45;;;;;;;23.83;15.15;;;;;;;;;;4972702;28;20050;-69
2021/11/11 09:19:13;;;;;;;39.95;15.40;;;;;;;;;;4971978;28;20421;-68
2021/11/11 09:21:40;;;;;;;29.80;16.63;;;;;;;;;;4972549;28;20055;-69
2021/11/11 09:24:09;;;;;;;23.60;14.80;;;;;;;;;;4972312;28;20059;-69
2021/11/11 09:26:38;;;;;;;23.00;15.82;;;;;;;;;;4973028;28;20422;-69
2021/11/11 09:29:04;;;;;;;23.67;16.45;;;;;;;;;;4972949;28;20047;-69
2021/11/11 09:31:31;;;;;;;25.50;15.85;;;;;;;;;;4972616;28;20058;-68
2021/11/11 09:33:58;;;;;;;23.90;17.30;;;;;;;;;;4972790;28;20054;-69
2021/11/11 09:36:28;;;;;;;32.67;16.27;;;;;;;;;;4971079;28;20156;-70
2021/11/11 09:38:54;;;;;;;24.10;17.08;;;;;;;;;;4952456;29;20047;-70
2021/11/11 09:41:22;;;;;;;34.22;18.83;;;;;;;;;;4952856;28;20130;-69
2021/11/11 09:43:48;;;;;;;29.70;18.13;;;;;;;;;;4953255;29;20502;-69
2021/11/11 09:46:17;;;;;;;29.20;18.45;;;;;;;;;;4952622;28;20078;-70
2021/11/11 09:48:44;;;;;;;27.98;18.83;;;;;;;;;;5034497;23;20042;-68
2021/11/11 09:51:14;;;;;;;25.40;18.85;;;;;;;;;;5044844;28;20080;-68
2021/11/11 09:53:54;;;;;;;28.27;18.10;;;;;;;;;;5052464;28;20076;-68
2021/11/11 09:59:22;;;;;;;28.33;19.73;;;;;;;;;;5051150;28;20496;-68
2021/11/11 10:01:50;;;;;;;30.42;18.58;;;;;;;;;;5051487;28;20049;-68
2021/11/11 10:04:17;;;;;;;34.55;19.10;;;;;;;;;;5052071;28;20069;-68
2021/11/11 10:06:44;;;;;;;39.70;19.23;;;;;;;;;;5036849;28;20112;-68
2021/11/11 10:09:20;;;;;;;27.30;17.55;;;;;;;;;;5035627;28;20076;-68
2021/11/11 10:11:58;;;;;;;27.83;18.77;;;;;;;;;;5032763;28;20054;-68
2021/11/11 10:14:27;;;;;;;28.48;19.85;;;;;;;;;;5018381;28;20050;-67
2021/11/11 10:16:59;;;;;;;29.88;18.40;;;;;;;;;;5015784;28;20455;-67
2021/11/11 10:19:27;;;;;;;28.20;19.33;;;;;;;;;;5015495;28;20101;-67
2021/11/11 10:22:04;;;;;;;31.75;19.90;;;;;;;;;;5025212;28;20577;-68
2021/11/11 10:24:48;;;;;;;27.65;18.92;;;;;;;;;;5035374;28;20099;-69
2021/11/11 10:30:04;;;;;;;28.27;19.77;;;;;;;;;;5049509;28;20076;-68
2021/11/11 10:32:44;;;;;;;28.55;18.48;;;;;;;;;;5050729;28;20132;-68
2021/11/11 10:35:21;;;;;;;31.10;20.95;;;;;;;;;;5047632;28;20049;-68
2021/11/11 10:37:52;;;;;;;28.02;18.40;;;;;;;;;;5034926;28;20550;-69
2021/11/11 10:40:34;;;;;;;29.23;19.60;;;;;;;;;;5034832;28;20139;-69
2021/11/11 10:43:07;;;;;;;30.13;20.88;;;;;;;;;;5034777;28;20170;-69
2021/11/11 10:45:37;;;;;;;23.75;17.63;;;;;;;;;;5034583;28;20133;-69
2021/11/11 10:48:08;;;;;;;28.65;18.00;;;;;;;;;;5034395;28;20054;-68
2021/11/11 10:50:42;;;;;;;24.48;19.20;;;;;;;;;;5034445;28;20500;-68
2021/11/11 10:53:11;;;;;;;28.80;19.20;;;;;;;;;;5034263;28;20046;-69
2021/11/11 10:55:42;;;;;;;29.27;18.65;;;;;;;;;;5034270;28;20727;-69
2021/11/11 10:58:13;;;;;;;25.30;18.33;;;;;;;;;;5033114;28;20049;-68
2021/11/11 11:00:48;;;;;;;27.38;19.77;;;;;;;;;;5027285;28;20473;-69
2021/11/11 11:03:23;;;;;;;28.88;19.33;;;;;;;;;;5014265;28;20045;-69
2021/11/11 11:05:55;;;;;;;27.60;19.00;;;;;;;;;;5014313;28;20080;-69
2021/11/11 11:08:42;;;;;;;27.90;19.10;;;;;;;;;;5014021;28;20054;-68
2021/11/11 11:11:15;;;;;;;28.25;19.58;;;;;;;;;;5014169;28;20511;-68
2021/11/11 11:13:44;;;;;;;27.65;18.80;;;;;;;;;;5013790;28;20539;-69
2021/11/11 11:16:12;;;;;;;27.65;19.35;;;;;;;;;;5026004;28;20057;-69
2021/11/11 11:18:41;;;;;;;26.48;18.58;;;;;;;;;;5033471;28;20056;-69
2021/11/11 11:21:16;;;;;;;25.15;17.95;;;;;;;;;;5033694;28;20079;-69
2021/11/11 11:23:49;;;;;;;26.73;18.90;;;;;;;;;;5033692;28;20111;-69
2021/11/11 11:26:28;;;;;;;27.63;18.23;;;;;;;;;;5033666;28;20049;-69
2021/11/11 11:29:07;;;;;;;32.38;19.25;;;;;;;;;;5033011;28;20057;-69
2021/11/11 11:31:43;;;;;;;31.05;18.92;;;;;;;;;;5019295;28;20054;-69
2021/11/11 11:34:14;;;;;;;28.58;18.92;;;;;;;;;;5013302;28;20152;-70
2021/11/11 11:36:46;;;;;;;24.02;15.90;;;;;;;;;;5013620;28;20054;-69
2021/11/11 11:39:19;;;;;;;24.80;18.70;;;;;;;;;;5013646;28;20057;-70
2021/11/11 11:41:45;;;;;;;27.13;18.08;;;;;;;;;;5012489;28;20053;-70
2021/11/11 11:44:20;;;;;;;25.95;17.00;;;;;;;;;;5020518;28;20500;-68
2021/11/11 11:46:56;;;;;;;26.25;17.35;;;;;;;;;;5024364;28;20056;-71
2021/11/11 11:49:23;;;;;;;26.08;17.65;;;;;;;;;;5026290;28;20100;-73
2021/11/11 11:51:52;;;;;;;26.73;17.58;;;;;;;;;;5019138;28;20054;-72
2021/11/11 11:54:37;;;;;;;26.30;17.65;;;;;;;;;;5022242;28;20053;-72
2021/11/11 11:57:13;;;;;;;23.65;16.77;;;;;;;;;;5019901;28;20053;-72
2021/11/11 11:59:44;;;;;;;24.60;16.75;;;;;;;;;;5025534;28;20047;-72
2021/11/11 12:05:22;;;;;;;22.17;15.60;;;;;;;;;;5032816;28;20052;-72
2021/11/11 12:13:56;;;;;;;24.90;16.48;;;;;;;;;;5022096;28;20034;-73
2021/11/11 12:16:44;;;;;;;22.58;15.65;;;;;;;;;;5027330;28;20054;-73
2021/11/11 12:39:52;;;;;;;23.23;15.98;;;;;;;;;;5018663;28;20046;-72
2021/11/11 12:42:27;;;;;;;21.75;15.93;;;;;;;;;;5020670;28;20057;-70
2021/11/11 12:45:18;;;;;;;26.92;16.95;;;;;;;;;;5020883;28;20099;-71
2021/11/11 12:48:01;;;;;;;23.83;17.15;;;;;;;;;;5020122;28;20087;-72
2021/11/11 12:50:28;;;;;;;27.27;18.50;;;;;;;;;;5019447;28;20552;-71
2021/11/11 12:53:19;;;;;;;26.80;18.27;;;;;;;;;;5016977;28;20049;-71
2021/11/11 12:56:09;;;;;;;32.83;19.65;;;;;;;;;;5019125;28;20123;-71
2021/11/11 12:58:44;;;;;;;29.00;18.75;;;;;;;;;;5021383;28;20050;-70
2021/11/11 13:01:19;;;;;;;28.33;19.08;;;;;;;;;;5014435;28;20068;-71
2021/11/11 13:03:49;;;;;;;28.17;19.27;;;;;;;;;;5019181;28;20057;-72
2021/11/11 13:06:45;;;;;;;28.45;19.55;;;;;;;;;;5016090;28;20072;-71
2021/11/11 13:09:39;;;;;;;27.63;18.52;;;;;;;;;;5019173;28;20041;-71
2021/11/11 13:12:24;;;;;;;31.48;20.17;;;;;;;;;;5014875;28;20112;-71
2021/11/11 13:15:06;;;;;;;29.58;19.17;;;;;;;;;;5015832;28;20420;-71
2021/11/11 13:17:44;;;;;;;31.45;19.63;;;;;;;;;;5019228;28;20131;-71
2021/11/11 13:20:24;;;;;;;31.65;21.42;;;;;;;;;;5014873;28;20054;-71
2021/11/11 15:15:40;;;;;;;58.47;33.53;;;;;;;;;;5014244;28;20046;-69
2021/11/11 16:00:05;;;;;;;91.75;33.53;;;;;;;;;;4979399;28;20058;-67
2021/11/11 16:22:32;;;;;;;144.40;32.90;;;;;;;;;;4980917;28;20508;-70
2021/11/11 16:28:01;;;;;;;65.32;32.15;;;;;;;;;;4981624;28;20050;-71
2021/11/11 16:30:28;;;;;;;68.15;30.85;;;;;;;;;;4981226;28;20093;-71
2021/11/11 16:32:55;;;;;;;47.92;28.65;;;;;;;;;;4981629;28;20456;-71
2021/11/11 16:35:23;;;;;;;70.90;27.92;;;;;;;;;;4983895;28;20054;-70
2021/11/11 16:37:51;;;;;;;79.32;31.13;;;;;;;;;;4980954;28;20451;-71
2021/11/11 16:40:20;;;;;;;74.75;31.75;;;;;;;;;;4978000;28;20046;-70
2021/11/11 16:42:47;;;;;;;74.20;30.30;;;;;;;;;;4982909;28;20050;-72
2021/11/11 16:45:17;;;;;;;92.10;31.25;;;;;;;;;;4982638;28;20074;-70
2021/11/11 16:47:44;;;;;;;55.03;30.35;;;;;;;;;;4962123;28;20386;-70
2021/11/11 16:50:11;;;;;;;82.82;31.40;;;;;;;;;;4978066;28;20280;-72
2021/11/11 16:52:38;;;;;;;103.97;31.77;;;;;;;;;;4963476;28;20050;-71
2021/11/11 16:55:05;;;;;;;141.82;32.97;;;;;;;;;;4983242;28;20453;-71
2021/11/11 16:57:32;;;;;;;144.70;32.60;;;;;;;;;;4985931;28;20105;-71
2021/11/11 16:59:58;;;;;;;146.93;31.50;;;;;;;;;;4978409;28;20501;-70
2021/11/11 17:02:25;;;;;;;93.20;30.17;;;;;;;;;;4981584;28;20047;-71
2021/11/11 17:04:52;;;;;;;97.97;29.92;;;;;;;;;;4980701;28;20509;-71
2021/11/11 17:07:21;;;;;;;80.88;30.60;;;;;;;;;;4982693;28;20133;-71
2021/11/11 17:09:47;;;;;;;122.57;31.77;;;;;;;;;;4982382;28;20050;-71
2021/11/11 17:12:14;;;;;;;64.05;29.45;;;;;;;;;;4979789;28;20077;-71
2021/11/11 17:14:42;;;;;;;137.20;32.15;;;;;;;;;;4979227;28;20053;-70
2021/11/11 17:17:10;;;;;;;99.90;31.33;;;;;;;;;;4979498;28;20141;-71
2021/11/11 17:19:36;;;;;;;102.32;32.05;;;;;;;;;;4978641;28;20047;-72
2021/11/11 17:22:03;;;;;;;77.65;29.70;;;;;;;;;;4979856;28;20046;-71
2021/11/11 17:24:36;;;;;;;162.55;32.45;;;;;;;;;;4977949;28;20445;-71
2021/11/11 17:29:30;;;;;;;151.45;29.67;;;;;;;;;;4978961;28;20043;-71
2021/11/11 17:31:57;;;;;;;161.50;29.17;;;;;;;;;;4981934;28;20077;-71
2021/11/11 17:34:24;;;;;;;46.38;26.45;;;;;;;;;;4993522;28;20058;-71
2021/11/11 17:36:51;;;;;;;115.97;27.85;;;;;;;;;;4977875;28;20042;-72
2021/11/11 17:39:18;;;;;;;93.25;27.35;;;;;;;;;;4981209;28;20131;-72
2021/11/11 17:41:47;;;;;;;119.32;31.60;;;;;;;;;;4981843;28;20141;-71
2021/11/11 17:44:16;;;;;;;77.90;28.67;;;;;;;;;;4980071;28;20110;-72
2021/11/11 17:46:47;;;;;;;58.03;29.55;;;;;;;;;;4979145;28;20105;-71
2021/11/11 17:49:19;;;;;;;103.40;30.67;;;;;;;;;;4975981;28;20054;-72
2021/11/11 17:54:34;;;;;;;151.15;30.17;;;;;;;;;;4975765;28;20053;-71
2021/11/11 17:57:03;;;;;;;81.30;26.88;;;;;;;;;;4977822;28;20473;-72
2021/11/11 17:59:33;;;;;;;116.25;30.45;;;;;;;;;;4975495;28;20062;-71
2021/11/11 18:02:03;;;;;;;123.97;32.75;;;;;;;;;;4977647;28;20077;-71
2021/11/11 18:04:37;;;;;;;118.72;32.55;;;;;;;;;;4977021;28;20054;-71
2021/11/11 18:07:11;;;;;;;158.40;31.27;;;;;;;;;;4959887;28;20113;-70
2021/11/11 18:09:47;;;;;;;189.38;31.52;;;;;;;;;;4979081;28;20482;-71
2021/11/11 18:12:22;;;;;;;103.35;30.27;;;;;;;;;;4978373;28;20108;-72
2021/11/11 18:14:56;;;;;;;75.00;29.17;;;;;;;;;;4974517;28;20103;-72
2021/11/11 18:17:24;;;;;;;164.05;31.63;;;;;;;;;;4972386;28;20053;-72
2021/11/11 18:19:52;;;;;;;75.88;29.52;;;;;;;;;;4981425;28;20054;-73
2021/11/11 18:22:19;;;;;;;103.70;29.48;;;;;;;;;;4978756;28;20050;-73
2021/11/11 18:24:46;;;;;;;88.40;30.40;;;;;;;;;;4981774;28;20050;-72
2021/11/11 18:27:13;;;;;;;88.47;27.88;;;;;;;;;;4982824;28;20047;-72
2021/11/11 18:29:49;;;;;;;134.73;30.88;;;;;;;;;;4982576;28;20066;-73